createdAt,value
2023-04-25T00:04:36.629Z,967.78
2023-04-25T00:10:07.367Z,967.61
2023-04-25T00:15:39.156Z,968.54
2023-04-25T00:21:15.119Z,968.68
2023-04-25T00:26:46.918Z,968.29
2023-04-25T00:32:18.459Z,967.4
2023-04-25T00:37:50.282Z,967.63
2023-04-25T00:43:22.023Z,968.2
2023-04-25T00:48:53.660Z,968.07
2023-04-25T00:54:25.559Z,967.77
2023-04-25T00:59:57.162Z,967.56
2023-04-25T01:05:29.426Z,967.8
2023-04-25T01:11:00.643Z,968.37
2023-04-25T01:16:32.412Z,968.33
2023-04-25T01:22:10.451Z,967.97
2023-04-25T01:27:42.307Z,967.83
2023-04-25T01:33:13.932Z,967.65
2023-04-25T01:38:45.739Z,967.93
2023-04-25T01:44:17.398Z,967.31
2023-04-25T01:49:49.015Z,967.01
2023-04-25T01:55:20.829Z,966.6
2023-04-25T02:00:52.605Z,966.73
2023-04-25T02:06:24.326Z,966.81
2023-04-25T02:11:56.025Z,966.76
2023-04-25T02:17:27.554Z,968.02
2023-04-25T02:23:04.116Z,967.49
2023-04-25T02:28:35.486Z,966.7
2023-04-25T02:34:07.151Z,967.19
2023-04-25T02:39:38.817Z,967.29
2023-04-25T02:45:10.543Z,967.94
2023-04-25T02:50:42.549Z,968.64
2023-04-25T02:56:14.077Z,968.38
2023-04-25T03:01:45.700Z,968.51
2023-04-25T03:07:17.651Z,968.3
2023-04-25T03:12:49.176Z,968.73
2023-04-25T03:18:21.914Z,968.37
2023-04-25T03:23:57.189Z,968.6
2023-04-25T03:29:28.848Z,968.27
2023-04-25T03:35:00.789Z,967.75
2023-04-25T03:40:32.224Z,967.6
2023-04-25T03:46:04.160Z,967.23
2023-04-25T03:51:36.167Z,967.1
2023-04-25T03:57:07.554Z,967.01
2023-04-25T04:02:40.049Z,967.3
2023-04-25T04:08:11.161Z,967.34
2023-04-25T04:13:42.689Z,967.89
2023-04-25T04:19:14.378Z,967.94
2023-04-25T04:24:50.648Z,967.78
2023-04-25T04:30:22.167Z,968.37
2023-04-25T04:35:54.065Z,967.71
2023-04-25T04:41:25.584Z,967.91
2023-04-25T04:46:57.820Z,968.39
2023-04-25T04:52:29.003Z,968.43
2023-04-25T04:58:00.871Z,968.44
2023-04-25T05:03:33.450Z,968.86
2023-04-25T05:09:04.343Z,969.48
2023-04-25T05:14:35.908Z,969.44
2023-04-25T05:20:07.687Z,969.36
2023-04-25T05:25:45.784Z,969.28
2023-04-25T05:31:17.465Z,968.47
2023-04-25T05:36:49.952Z,968.97
2023-04-25T05:42:21.186Z,968.97
2023-04-25T05:47:52.957Z,969.51
2023-04-25T05:53:24.680Z,969.79
2023-04-25T05:58:56.283Z,969.86
2023-04-25T06:04:28.913Z,969.62
2023-04-25T06:10:00.047Z,969.54
2023-04-25T06:15:31.446Z,969.95
2023-04-25T06:21:03.252Z,970.57
2023-04-25T06:26:41.316Z,970.26
2023-04-25T06:32:13.290Z,970.62
2023-04-25T06:37:44.674Z,970.47
2023-04-25T06:43:16.410Z,970.96
2023-04-25T06:48:48.376Z,970.94
2023-04-25T06:54:19.780Z,970.62
2023-04-25T06:59:51.715Z,970.54
2023-04-25T07:05:23.450Z,971.27
2023-04-25T07:10:54.904Z,971.7
2023-04-25T07:16:26.859Z,971.25
2023-04-25T07:21:58.990Z,971.25
2023-04-25T07:27:34.541Z,970.94
2023-04-25T07:33:06.679Z,971.09
2023-04-25T07:38:38.004Z,971.63
2023-04-25T07:44:09.755Z,971.75
2023-04-25T07:49:41.652Z,970.74
2023-04-25T07:55:13.769Z,971.06
2023-04-25T08:00:45.130Z,971.38
2023-04-25T08:06:17.987Z,970.89
2023-04-25T08:11:48.384Z,971.13
2023-04-25T08:17:20.300Z,970.68
2023-04-25T08:22:51.766Z,971.04
2023-04-25T08:28:27.838Z,971.32
2023-04-25T08:34:01.057Z,970.98
2023-04-25T08:39:31.507Z,971.25
2023-04-25T08:45:08.700Z,971.91
2023-04-25T08:50:34.708Z,972.11
2023-04-25T08:56:06.638Z,972.43
2023-04-25T09:01:38.495Z,972.45
2023-04-25T09:07:10.406Z,972.82
2023-04-25T09:12:42.074Z,973.13
2023-04-25T09:18:13.730Z,972.81
2023-04-25T09:23:45.384Z,972.94
2023-04-25T09:29:23.052Z,973.82
2023-04-25T09:34:55.082Z,972.93
2023-04-25T09:40:26.482Z,973.59
2023-04-25T09:46:00.078Z,973.82
2023-04-25T09:51:29.944Z,973.18
2023-04-25T09:57:01.688Z,972.28
2023-04-25T10:02:33.789Z,972.93
2023-04-25T10:08:05.245Z,971.37
2023-04-25T10:13:36.868Z,972.14
2023-04-25T10:19:08.836Z,972.88
2023-04-25T10:24:40.372Z,971.19
2023-04-25T10:30:17.668Z,971.39
2023-04-25T10:35:48.279Z,971.55
2023-04-25T10:41:19.990Z,971.98
2023-04-25T10:46:52.552Z,972.5
2023-04-25T10:52:23.471Z,973.29
2023-04-25T10:57:55.233Z,973.48
2023-04-25T11:03:27.862Z,973.0
2023-04-25T11:08:58.916Z,972.88
2023-04-25T11:14:31.345Z,973.51
2023-04-25T11:20:02.373Z,973.93
2023-04-25T11:25:39.047Z,973.93
2023-04-25T11:31:09.937Z,974.14
2023-04-25T11:36:41.946Z,974.63
2023-04-25T11:42:14.751Z,974.42
2023-04-25T11:47:46.134Z,974.54
2023-04-25T11:53:17.114Z,975.27
2023-04-25T11:58:49.840Z,975.42
2023-04-25T12:04:21.127Z,975.09
2023-04-25T12:09:52.008Z,975.41
2023-04-25T12:15:24.025Z,974.96
2023-04-25T12:20:55.970Z,975.26
2023-04-25T12:26:27.206Z,976.0
2023-04-25T12:32:05.166Z,976.75
2023-04-25T12:37:37.190Z,976.73
2023-04-25T12:43:08.760Z,977.54
2023-04-25T12:48:40.510Z,978.03
2023-04-25T12:54:12.376Z,977.24
2023-04-25T12:59:44.162Z,976.76
2023-04-25T13:05:15.613Z,977.45
2023-04-25T13:10:47.779Z,977.43
2023-04-25T13:16:19.535Z,977.52
2023-04-25T13:21:51.181Z,977.34
2023-04-25T13:27:23.096Z,977.0
2023-04-25T13:33:01.048Z,977.14
2023-04-25T13:38:32.452Z,977.37
2023-04-25T13:44:04.086Z,977.61
2023-04-25T13:49:35.886Z,977.52
2023-04-25T13:55:07.378Z,977.53
2023-04-25T14:00:39.399Z,978.31
2023-04-25T14:06:11.526Z,977.84
2023-04-25T14:11:42.776Z,978.98
2023-04-25T14:17:14.455Z,978.71
2023-04-25T14:22:46.337Z,978.31
2023-04-25T14:28:17.708Z,977.95
2023-04-25T14:33:59.465Z,978.34
2023-04-25T14:39:25.818Z,978.5
2023-04-25T14:44:57.375Z,979.03
2023-04-25T14:50:29.187Z,977.95
2023-04-25T14:56:01.152Z,978.6
2023-04-25T15:01:32.903Z,978.86
2023-04-25T15:07:04.292Z,978.58
2023-04-25T15:12:36.222Z,978.83
2023-04-25T15:18:07.921Z,979.1
2023-04-25T15:23:39.432Z,978.79
2023-04-25T15:29:11.398Z,978.82
2023-04-25T15:34:49.424Z,978.1
2023-04-25T15:40:21.200Z,978.13
2023-04-25T15:45:53.257Z,978.7
2023-04-25T15:51:24.654Z,978.58
2023-04-25T15:56:56.405Z,978.62
2023-04-25T16:02:28.413Z,978.38
2023-04-25T16:07:59.690Z,978.04
2023-04-25T16:13:31.621Z,978.45
2023-04-25T16:19:03.179Z,977.87
2023-04-25T16:24:34.782Z,978.27
2023-04-25T16:30:06.983Z,977.87
2023-04-25T16:35:44.760Z,978.06
2023-04-25T16:41:16.438Z,977.65
2023-04-25T16:46:48.197Z,977.9
2023-04-25T16:52:19.914Z,977.6
2023-04-25T16:57:51.477Z,977.5
2023-04-25T17:03:24.097Z,977.54
2023-04-25T17:08:55.577Z,977.2
2023-04-25T17:14:26.619Z,977.5
2023-04-25T17:19:58.682Z,977.74
2023-04-25T17:25:30.145Z,977.19
2023-04-25T17:31:02.405Z,976.33
2023-04-25T17:36:40.087Z,975.77
2023-04-25T17:42:11.811Z,975.67
2023-04-25T17:47:43.452Z,976.0
2023-04-25T17:53:15.081Z,975.34
2023-04-25T17:58:46.767Z,976.0
2023-04-25T18:04:18.611Z,976.33
2023-04-25T18:09:50.292Z,977.16
2023-04-25T18:15:22.160Z,977.08
2023-04-25T18:20:53.824Z,977.14
2023-04-25T18:26:25.446Z,977.24
2023-04-25T18:31:57.456Z,978.33
2023-04-25T18:37:33.486Z,978.53
2023-04-25T18:43:05.321Z,978.38
2023-04-25T18:48:37.150Z,978.68
2023-04-25T18:54:08.748Z,978.68
2023-04-25T18:59:40.331Z,978.8
2023-04-25T19:05:12.440Z,978.79
2023-04-25T19:10:43.848Z,978.88
2023-04-25T19:16:15.580Z,978.62
2023-04-25T19:21:47.268Z,978.85
2023-04-25T19:27:18.980Z,979.0
2023-04-25T19:32:50.787Z,979.31
2023-04-25T19:38:27.289Z,979.24
2023-04-25T19:43:58.605Z,979.14
2023-04-25T19:49:30.135Z,978.9
2023-04-25T19:55:01.967Z,978.87
2023-04-25T20:00:33.572Z,979.17
2023-04-25T20:06:05.330Z,979.32
2023-04-25T20:11:37.314Z,979.06
2023-04-25T20:17:08.773Z,979.1
2023-04-25T20:22:41.502Z,979.26
2023-04-25T20:28:12.524Z,979.17
2023-04-25T20:33:44.153Z,979.25
2023-04-25T20:39:22.263Z,979.19
2023-04-25T20:44:53.926Z,979.05
2023-04-25T20:50:25.794Z,979.36
2023-04-25T20:55:57.629Z,979.3
2023-04-25T21:01:29.467Z,979.51
2023-04-25T21:07:00.923Z,979.66
2023-04-25T21:12:33.276Z,979.6
2023-04-25T21:18:04.397Z,979.57
2023-04-25T21:23:35.994Z,979.63
2023-04-25T21:29:07.787Z,979.49
2023-04-25T21:34:39.515Z,979.46
2023-04-25T21:40:15.627Z,979.52
2023-04-25T21:46:23.950Z,979.59
2023-04-25T21:51:19.073Z,979.54
2023-04-25T21:56:50.832Z,979.59
2023-04-25T22:02:23.132Z,979.75
2023-04-25T22:07:54.427Z,979.61
2023-04-25T22:13:25.815Z,979.63
2023-04-25T22:18:57.514Z,979.73
2023-04-25T22:24:29.251Z,979.89
2023-04-25T22:30:01.272Z,979.63
2023-04-25T22:35:32.769Z,979.75
2023-04-25T22:41:11.090Z,979.92
2023-04-25T22:46:42.646Z,979.87
2023-04-25T22:52:14.280Z,979.84
2023-04-25T22:57:46.515Z,979.97
2023-04-25T23:03:18.782Z,979.75
2023-04-25T23:08:50.866Z,980.01
2023-04-25T23:14:21.536Z,979.83
2023-04-25T23:19:53.223Z,979.85
2023-04-25T23:25:24.908Z,979.64
2023-04-25T23:30:56.577Z,979.8
2023-04-25T23:36:28.381Z,979.65
2023-04-25T23:42:05.260Z,979.53
2023-04-25T23:47:36.715Z,979.27
2023-04-25T23:53:07.767Z,979.45
2023-04-25T23:58:39.806Z,979.49
